Weather at Al Bateen Executive Airport

Public forecast

Using degrees Celsius for public forecast. Weather courtesy of forecast.io.

Current aviation weather report (METAR) for Al Bateen Executive Airport

2024/06/15 03:00 (retrieved 43 minutes ago)

OMAD 150300Z 12004KT 100V160 CAVOK 32/12 Q0998 NOSIG

Closest aviation forecast (TAF) to Al Bateen Executive Airport

Forecast is more than 6 hours old.

Closest forecast is Basra International Airport, 515.6 nm (954.8 km) NW.

2024/06/14 18:18 (retrieved 9 hours ago)

TAF TAF ORMM 141615Z 1418/1518 28005KT CAVOK